This is the latest recevied weather packets stored in our database for station/object K6FW. If no packets are shown the sender has not sent any weather packets the latest 10 day(s).
| Time | Temp. | Humidity | Pressure | Rain* | Wind** | Luminosity | Snow |
|---|---|---|---|---|---|---|---|
| 1777546859 | 12.78° C | 82% | 1013.7 hPa | 0 mm | - | 0 W/m² | - |
| 1777541491 | 13.33° C | 78% | 1014.2 hPa | 0 mm | - | 0 W/m² | - |
| 1777537859 | 13.33° C | 77% | 1014.8 hPa | 0 mm | - | 0 W/m² | - |
| 1777536958 | 13.89° C | 77% | 1015 hPa | 0 mm | - | 0 W/m² | - |
| 1777536070 | 13.89° C | 76% | 1014.8 hPa | 0 mm | - | 0 W/m² | - |
| 1777527059 | 16.11° C | 68% | 1015.8 hPa | 0 mm | - | 0 W/m² | - |
| 1777525270 | 16.11° C | 66% | 1015.7 hPa | 0 mm | - | 0 W/m² | - |
| 1777517158 | 18.89° C | 56% | 1014.4 hPa | 0 mm | - | 0 W/m² | - |
| 1777512667 | 20.56° C | 53% | 1013.7 hPa | 0 mm | - | 107 W/m² | - |
| 1777509058 | 22.78° C | 49% | 1013.9 hPa | 0 mm | - | 283 W/m² | - |
| 1777501863 | 24.44° C | 44% | 1014.2 hPa | 0 mm | - | 735 W/m² | - |
| 1777499169 | 25° C | 43% | 1014.4 hPa | 0 mm | - | 842 W/m² | - |
| 1777491958 | 25° C | 41% | 1015.1 hPa | 0 mm | - | 963 W/m² | - |
| 1777485657 | 21.67° C | 45% | 1016.2 hPa | 0 mm | - | 870 W/m² | - |
| 1777484770 | 20° C | 48% | 1016.6 hPa | 0 mm | - | 842 W/m² | - |
| 1777481154 | 17.22° C | 58% | 1017.4 hPa | 0 mm | - | 682 W/m² | - |
| 1777478461 | 16.67° C | 68% | 1017.3 hPa | 0 mm | - | 540 W/m² | - |
| 1777476668 | 15° C | 73% | 1017.6 hPa | 0 mm | - | 434 W/m² | - |
| 1777474854 | 13.33° C | 80% | 1017.7 hPa | 0 mm | - | 329 W/m² | - |
| 1777471264 | 11.11° C | 85% | 1017.7 hPa | 0 mm | - | 98 W/m² | - |
| 1777467667 | 10° C | 84% | 1017.6 hPa | 0 mm | - | 0 W/m² | - |
| 1777462258 | 10.56° C | 82% | 1017.3 hPa | 0 mm | - | 0 W/m² | - |
| 1777458659 | 11.11° C | 81% | 1016.8 hPa | 0 mm | - | 0 W/m² | - |
| 1777456874 | 11.67° C | 80% | 1016.7 hPa | 0 mm | - | 0 W/m² | - |
| 1777453259 | 11.67° C | 77% | 1017.1 hPa | 0 mm | - | 0 W/m² | - |
* Rain latest hour (hover to see other rain measurements)
** Current wind speed in m/s (hover to see current wind gust speed)